Time;durP1;ratioP1;P1;durP2;ratioP2;P2;SDS_P1;SDS_P2;PMS_P1;PMS_P2;Temp;Humidity;BMP_temperature;BMP_pressure;BME280_temperature;BME280_humidity;BME280_pressure;Samples;Min_cycle;Max_cycle;Signal;HPM_P1;HPM_P2
2023/04/23 00:02:01;;;;;;;2.53;1.90;;;13.70;99.90;;;;;;5020525;28;20085;-78
2023/04/23 00:04:33;;;;;;;3.58;1.92;;;13.70;99.90;;;;;;5017988;28;20077;-78
2023/04/23 00:07:01;;;;;;;3.90;1.95;;;13.70;99.90;;;;;;5018287;28;20098;-79
2023/04/23 00:09:30;;;;;;;2.47;1.55;;;13.70;99.90;;;;;;5020618;28;20042;-78
2023/04/23 00:11:58;;;;;;;4.50;1.88;;;13.70;99.90;;;;;;5018293;28;20085;-78
2023/04/23 00:14:25;;;;;;;3.13;1.92;;;13.60;99.90;;;;;;5023329;28;20046;-79
2023/04/23 00:16:52;;;;;;;3.63;2.00;;;13.60;99.90;;;;;;5019208;28;20421;-77
2023/04/23 00:19:19;;;;;;;1.73;1.63;;;13.60;99.90;;;;;;5023099;28;20085;-79
2023/04/23 00:21:46;;;;;;;1.75;1.52;;;13.60;99.90;;;;;;5019277;28;20171;-79
2023/04/23 00:24:13;;;;;;;2.40;1.75;;;13.60;99.90;;;;;;5016576;28;20133;-78
2023/04/23 00:26:40;;;;;;;2.67;1.70;;;13.50;99.90;;;;;;5020324;28;20060;-78
2023/04/23 00:29:06;;;;;;;3.47;1.67;;;13.50;99.90;;;;;;5020611;28;20096;-78
2023/04/23 00:31:33;;;;;;;5.72;1.73;;;13.50;99.90;;;;;;5019479;28;20064;-77
2023/04/23 00:34:00;;;;;;;1.92;1.80;;;13.50;99.90;;;;;;5017604;28;20109;-78
2023/04/23 00:36:27;;;;;;;4.88;2.10;;;13.50;99.90;;;;;;5018849;28;20042;-78
2023/04/23 00:38:53;;;;;;;2.35;1.50;;;13.50;99.90;;;;;;5019251;28;20137;-79
2023/04/23 00:41:20;;;;;;;5.32;2.10;;;13.50;99.90;;;;;;5016321;28;20072;-78
2023/04/23 00:43:48;;;;;;;1.52;1.42;;;13.50;99.90;;;;;;5018792;28;20248;-78
2023/04/23 00:46:15;;;;;;;3.08;1.58;;;13.40;99.90;;;;;;5017133;28;20052;-78
2023/04/23 00:48:43;;;;;;;2.30;1.42;;;13.40;99.90;;;;;;5019905;28;20092;-79
2023/04/23 00:51:10;;;;;;;2.72;1.52;;;13.40;99.90;;;;;;5021179;28;20049;-79
2023/04/23 00:53:37;;;;;;;1.20;1.10;;;13.40;99.90;;;;;;5020197;28;20513;-78
2023/04/23 00:56:05;;;;;;;2.72;1.50;;;13.40;99.90;;;;;;5022148;28;20203;-78
2023/04/23 00:58:32;;;;;;;2.67;1.35;;;13.30;99.90;;;;;;5016922;28;20146;-78
2023/04/23 01:01:01;;;;;;;2.13;1.52;;;13.30;99.90;;;;;;5021177;28;20046;-79
2023/04/23 01:03:29;;;;;;;1.93;1.60;;;13.30;99.90;;;;;;5014686;28;20037;-78
2023/04/23 01:05:57;;;;;;;1.60;1.42;;;13.20;99.90;;;;;;5019035;28;20472;-78
2023/04/23 01:08:25;;;;;;;2.05;1.33;;;13.20;99.90;;;;;;5017863;28;20137;-78
2023/04/23 01:10:52;;;;;;;3.55;1.30;;;13.30;99.90;;;;;;5019528;28;20056;-78
2023/04/23 01:13:21;;;;;;;1.48;1.15;;;13.20;99.90;;;;;;5017774;28;20530;-78
2023/04/23 01:15:48;;;;;;;0.80;0.80;;;13.20;99.90;;;;;;5017282;28;20421;-77
2023/04/23 01:18:15;;;;;;;1.20;1.02;;;13.20;99.90;;;;;;5017827;28;20459;-78
2023/04/23 01:20:42;;;;;;;1.50;0.98;;;13.20;99.90;;;;;;5016580;28;20513;-78
2023/04/23 01:23:09;;;;;;;2.47;1.10;;;13.20;99.90;;;;;;5017464;28;20045;-79
2023/04/23 01:25:36;;;;;;;1.95;1.02;;;13.20;99.90;;;;;;5017510;28;20128;-78
2023/04/23 01:28:05;;;;;;;1.75;1.08;;;13.20;99.90;;;;;;5016854;28;20073;-78
2023/04/23 01:30:32;;;;;;;1.15;1.00;;;13.20;99.90;;;;;;5018926;28;20115;-78
2023/04/23 01:32:59;;;;;;;1.63;1.00;;;13.10;99.90;;;;;;5015379;28;20469;-77
2023/04/23 01:35:28;;;;;;;2.25;1.00;;;13.10;99.90;;;;;;5018698;28;20085;-78
2023/04/23 01:37:57;;;;;;;1.42;1.10;;;13.10;99.90;;;;;;5016110;28;20049;-79
2023/04/23 01:40:24;;;;;;;2.38;1.23;;;13.10;99.90;;;;;;5015530;28;20517;-78
2023/04/23 01:42:51;;;;;;;1.60;1.10;;;13.10;99.90;;;;;;5015975;28;20148;-77
2023/04/23 01:45:18;;;;;;;1.13;0.93;;;13.00;99.90;;;;;;5030566;28;20053;-77
2023/04/23 01:47:46;;;;;;;3.15;1.23;;;13.00;99.90;;;;;;5015336;28;20076;-79
2023/04/23 01:50:14;;;;;;;3.95;0.90;;;13.00;99.90;;;;;;5015413;28;20048;-78
2023/04/23 01:52:41;;;;;;;1.98;1.00;;;13.10;99.90;;;;;;5015500;28;20050;-77
2023/04/23 01:55:08;;;;;;;1.30;1.02;;;13.00;99.90;;;;;;5020280;28;20045;-77
2023/04/23 01:57:35;;;;;;;1.42;0.82;;;13.00;99.90;;;;;;5008912;28;20041;-78
2023/04/23 02:00:10;;;;;;;1.77;0.93;;;13.00;99.90;;;;;;5021694;28;20440;-78
2023/04/23 02:02:38;;;;;;;1.98;1.10;;;13.00;99.90;;;;;;5015054;28;20050;-78
2023/04/23 02:05:10;;;;;;;1.23;0.90;;;13.00;99.90;;;;;;5023787;28;20525;-78
2023/04/23 02:07:37;;;;;;;0.80;0.68;;;13.00;99.90;;;;;;5017529;28;20058;-79
2023/04/23 02:10:04;;;;;;;1.45;0.70;;;12.90;99.90;;;;;;5020870;28;20050;-78
2023/04/23 02:12:31;;;;;;;0.65;0.65;;;12.90;99.90;;;;;;5017201;28;20141;-79
2023/04/23 02:14:58;;;;;;;1.17;0.70;;;12.90;99.90;;;;;;5013566;28;20050;-78
2023/04/23 02:17:28;;;;;;;0.88;0.60;;;12.90;99.90;;;;;;5017394;28;20038;-77
2023/04/23 02:19:54;;;;;;;0.95;0.70;;;12.90;99.90;;;;;;5014890;28;20049;-78
2023/04/23 02:22:23;;;;;;;1.10;0.70;;;12.90;99.90;;;;;;5017172;28;20126;-79
2023/04/23 02:24:51;;;;;;;2.00;0.70;;;12.90;99.90;;;;;;5016835;28;20469;-79
2023/04/23 02:27:19;;;;;;;1.15;0.80;;;12.90;99.90;;;;;;5015957;28;20042;-77
2023/04/23 02:29:47;;;;;;;1.00;0.70;;;12.90;99.90;;;;;;5014056;28;20141;-79
2023/04/23 02:32:13;;;;;;;0.90;0.85;;;12.90;99.90;;;;;;5016246;28;20734;-77
2023/04/23 02:34:40;;;;;;;1.17;0.82;;;12.80;99.90;;;;;;5017340;28;20124;-77
2023/04/23 02:37:07;;;;;;;1.40;0.60;;;12.80;99.90;;;;;;5017732;28;20042;-77
2023/04/23 02:39:37;;;;;;;2.17;0.52;;;12.70;99.90;;;;;;5017389;28;20527;-78
2023/04/23 02:42:04;;;;;;;1.00;0.70;;;12.80;99.90;;;;;;5018982;28;20052;-78
2023/04/23 02:44:31;;;;;;;1.23;0.73;;;12.80;99.90;;;;;;5018013;28;20498;-79
2023/04/23 02:46:58;;;;;;;1.63;0.82;;;12.70;99.90;;;;;;5019633;28;20144;-79
2023/04/23 02:49:25;;;;;;;0.68;0.52;;;12.80;99.90;;;;;;5029573;28;20140;-77
2023/04/23 02:51:52;;;;;;;1.73;0.60;;;12.80;99.90;;;;;;5016564;28;20561;-78
2023/04/23 02:54:18;;;;;;;0.70;0.55;;;12.80;99.90;;;;;;5012116;28;20042;-77
2023/04/23 02:56:45;;;;;;;2.55;0.82;;;12.80;99.90;;;;;;5012058;28;20062;-77
2023/04/23 02:59:12;;;;;;;1.58;0.60;;;12.80;99.90;;;;;;5014875;28;20087;-78
2023/04/23 03:01:39;;;;;;;0.50;0.50;;;12.80;99.90;;;;;;5012923;28;20140;-79
2023/04/23 03:04:06;;;;;;;1.35;0.82;;;12.80;99.90;;;;;;5015052;28;20048;-79
2023/04/23 03:06:36;;;;;;;3.13;0.70;;;12.80;99.90;;;;;;5013801;28;20045;-76
2023/04/23 03:09:03;;;;;;;2.40;0.73;;;12.80;99.90;;;;;;5015883;28;20060;-77
2023/04/23 03:11:30;;;;;;;1.95;0.73;;;12.80;99.90;;;;;;5014010;28;20049;-77
2023/04/23 03:13:57;;;;;;;1.05;0.50;;;12.70;99.90;;;;;;5015415;28;20080;-78
2023/04/23 03:16:24;;;;;;;1.25;0.73;;;12.70;99.90;;;;;;5031931;28;20100;-78
2023/04/23 03:18:51;;;;;;;1.05;0.70;;;12.70;99.90;;;;;;5013423;28;20049;-77
2023/04/23 03:21:18;;;;;;;2.70;0.88;;;12.60;99.90;;;;;;5018010;28;20042;-78
2023/04/23 03:23:44;;;;;;;2.42;0.70;;;12.60;99.90;;;;;;5013636;28;20509;-78
2023/04/23 03:26:11;;;;;;;0.50;0.50;;;12.60;99.90;;;;;;5020415;28;20041;-78
2023/04/23 03:28:38;;;;;;;2.72;0.63;;;12.60;99.90;;;;;;5017010;28;20054;-78
2023/04/23 03:31:04;;;;;;;0.98;0.47;;;12.60;99.90;;;;;;5018470;28;20137;-77
2023/04/23 03:33:31;;;;;;;0.95;0.55;;;12.60;99.90;;;;;;5016654;28;20461;-79
2023/04/23 03:35:58;;;;;;;2.67;0.88;;;12.60;99.90;;;;;;5017694;28;20072;-79
2023/04/23 03:38:24;;;;;;;0.82;0.55;;;12.60;99.90;;;;;;5014910;28;20125;-79
2023/04/23 03:40:51;;;;;;;0.70;0.70;;;12.60;99.90;;;;;;5019119;28;20050;-78
2023/04/23 03:43:18;;;;;;;2.33;0.50;;;12.60;99.90;;;;;;5016646;28;20125;-79
2023/04/23 03:45:45;;;;;;;0.70;0.50;;;12.50;99.90;;;;;;5017642;28;20089;-78
2023/04/23 03:48:12;;;;;;;1.40;0.55;;;12.50;99.90;;;;;;5015361;28;20069;-78
2023/04/23 03:50:39;;;;;;;2.30;0.52;;;12.50;99.90;;;;;;5021078;28;20478;-77
2023/04/23 03:53:08;;;;;;;1.23;0.50;;;12.50;99.90;;;;;;5018046;28;20092;-78
2023/04/23 03:55:35;;;;;;;0.80;0.70;;;12.50;99.90;;;;;;5021657;28;20403;-79
2023/04/23 03:58:02;;;;;;;3.03;0.50;;;12.50;99.90;;;;;;5017191;28;20136;-77
2023/04/23 04:00:29;;;;;;;0.90;0.50;;;12.50;99.90;;;;;;5018120;28;20037;-78
2023/04/23 04:02:56;;;;;;;0.55;0.50;;;12.50;99.90;;;;;;5018121;28;20046;-78
2023/04/23 04:05:23;;;;;;;1.13;0.60;;;12.50;99.90;;;;;;5017277;28;20049;-77
2023/04/23 04:07:50;;;;;;;0.50;0.50;;;12.50;99.90;;;;;;5016572;28;20092;-79
2023/04/23 04:10:16;;;;;;;2.35;0.60;;;12.50;99.90;;;;;;5017332;28;20464;-78
2023/04/23 04:12:45;;;;;;;0.82;0.60;;;12.50;99.90;;;;;;5015786;28;20049;-79
2023/04/23 04:15:13;;;;;;;1.58;0.50;;;12.50;99.90;;;;;;5018357;28;20049;-78
2023/04/23 04:17:40;;;;;;;0.60;0.50;;;12.50;99.90;;;;;;5015768;28;20042;-79
2023/04/23 04:20:07;;;;;;;0.90;0.75;;;12.50;99.90;;;;;;5020142;28;20050;-80
2023/04/23 04:22:34;;;;;;;0.40;0.40;;;12.50;99.90;;;;;;5032190;28;20076;-79
2023/04/23 04:25:00;;;;;;;1.42;0.55;;;12.50;99.90;;;;;;5020494;28;20132;-79
2023/04/23 04:27:27;;;;;;;1.27;0.40;;;12.50;99.90;;;;;;5033303;28;20514;-79
2023/04/23 04:29:54;;;;;;;1.45;0.50;;;12.50;99.90;;;;;;5019821;28;20131;-78
2023/04/23 04:32:22;;;;;;;0.47;0.47;;;12.50;99.90;;;;;;5017450;28;20049;-78
2023/04/23 04:34:49;;;;;;;0.70;0.50;;;12.50;99.90;;;;;;5012067;28;20426;-78
2023/04/23 04:37:16;;;;;;;1.42;0.68;;;12.50;99.90;;;;;;5019410;28;20137;-78
2023/04/23 04:39:43;;;;;;;2.70;0.90;;;12.40;99.90;;;;;;5015831;28;20088;-78
2023/04/23 04:42:11;;;;;;;1.38;0.90;;;12.50;99.90;;;;;;5017373;28;20081;-79
2023/04/23 04:44:38;;;;;;;0.88;0.60;;;12.50;99.90;;;;;;5016611;28;20718;-78
2023/04/23 04:47:08;;;;;;;2.13;0.52;;;12.50;99.90;;;;;;5016170;28;20046;-78
2023/04/23 04:49:35;;;;;;;0.65;0.55;;;12.50;99.90;;;;;;5017063;28;20104;-79
2023/04/23 04:52:02;;;;;;;0.40;0.40;;;12.50;99.90;;;;;;5017785;28;20092;-79
2023/04/23 04:54:29;;;;;;;0.73;0.50;;;12.50;99.90;;;;;;5033254;28;20056;-79
2023/04/23 04:56:55;;;;;;;0.65;0.50;;;12.60;99.90;;;;;;5019022;28;20053;-79
2023/04/23 04:59:22;;;;;;;1.02;0.60;;;12.60;99.90;;;;;;5021613;28;20136;-78
2023/04/23 05:01:49;;;;;;;1.85;0.50;;;12.60;99.90;;;;;;5020651;28;20081;-78
2023/04/23 05:04:16;;;;;;;2.53;0.60;;;12.60;99.90;;;;;;5027050;28;20493;-78
2023/04/23 05:06:43;;;;;;;0.60;0.50;;;12.60;99.90;;;;;;5028034;28;20046;-77
2023/04/23 05:09:10;;;;;;;0.68;0.50;;;12.60;99.90;;;;;;5024060;28;20041;-78
2023/04/23 05:11:37;;;;;;;0.93;0.60;;;12.60;99.90;;;;;;5021986;28;20169;-79
2023/04/23 05:14:04;;;;;;;1.10;0.60;;;12.70;99.90;;;;;;5025132;28;20054;-78
2023/04/23 05:16:30;;;;;;;0.52;0.50;;;12.70;99.90;;;;;;5025501;28;20109;-79
2023/04/23 05:18:57;;;;;;;1.17;0.57;;;12.70;99.90;;;;;;5024605;28;20073;-77
2023/04/23 05:21:26;;;;;;;0.82;0.63;;;12.70;99.90;;;;;;5019383;28;20045;-77
2023/04/23 05:23:53;;;;;;;1.42;0.80;;;12.80;99.90;;;;;;5036772;28;20045;-78
2023/04/23 05:26:20;;;;;;;0.52;0.50;;;12.80;99.90;;;;;;5019696;28;20061;-79
2023/04/23 05:28:47;;;;;;;0.80;0.50;;;12.80;99.90;;;;;;5017461;28;20141;-79
2023/04/23 05:31:13;;;;;;;0.40;0.40;;;12.80;99.90;;;;;;5020495;28;20067;-78
2023/04/23 05:33:42;;;;;;;2.45;0.70;;;12.80;99.90;;;;;;5032691;28;20133;-79
2023/04/23 05:36:16;;;;;;;2.17;1.45;;;12.90;99.90;;;;;;5019208;28;20045;-78
2023/04/23 05:38:43;;;;;;;0.73;0.70;;;12.90;99.90;;;;;;5018895;28;20056;-78
2023/04/23 05:41:10;;;;;;;1.00;0.70;;;12.90;99.90;;;;;;5024814;28;20049;-78
2023/04/23 05:43:37;;;;;;;1.63;1.52;;;12.90;99.90;;;;;;5020837;28;20129;-78
2023/04/23 05:46:05;;;;;;;1.33;0.57;;;12.90;99.90;;;;;;5023410;28;20069;-78
2023/04/23 05:48:33;;;;;;;0.65;0.65;;;12.90;99.90;;;;;;5020082;28;20142;-79
2023/04/23 05:50:59;;;;;;;1.08;0.50;;;12.90;99.90;;;;;;5014313;28;20073;-78
2023/04/23 05:53:27;;;;;;;0.57;0.57;;;13.00;99.90;;;;;;5018295;28;20081;-77
2023/04/23 05:55:54;;;;;;;2.47;0.57;;;13.00;99.90;;;;;;5019807;28;20137;-79
2023/04/23 05:58:20;;;;;;;1.58;0.68;;;13.00;99.90;;;;;;5018930;28;20100;-78
2023/04/23 06:00:48;;;;;;;0.90;0.60;;;13.10;99.90;;;;;;5021016;28;20188;-78
2023/04/23 06:03:15;;;;;;;0.73;0.50;;;13.10;99.90;;;;;;5018876;28;20046;-79
2023/04/23 06:05:42;;;;;;;0.85;0.70;;;13.10;99.90;;;;;;5034625;28;20064;-79
2023/04/23 06:08:09;;;;;;;0.60;0.60;;;13.10;99.90;;;;;;5041069;28;20026;-80
2023/04/23 06:10:36;;;;;;;1.10;0.60;;;13.10;99.90;;;;;;5044569;28;20045;-80
2023/04/23 06:13:02;;;;;;;0.82;0.60;;;13.10;99.90;;;;;;5041097;28;20042;-79
2023/04/23 06:15:29;;;;;;;0.50;0.50;;;13.10;99.90;;;;;;5046306;28;20080;-78
2023/04/23 06:17:56;;;;;;;0.73;0.60;;;13.20;99.90;;;;;;5021171;28;20049;-78
2023/04/23 06:20:24;;;;;;;0.75;0.60;;;13.20;99.90;;;;;;5016872;28;20498;-79
2023/04/23 06:22:50;;;;;;;0.68;0.60;;;13.30;99.90;;;;;;5016779;28;20506;-78
2023/04/23 06:25:17;;;;;;;1.95;0.60;;;13.30;99.90;;;;;;5015234;28;20074;-78
2023/04/23 06:27:44;;;;;;;0.52;0.40;;;13.30;99.90;;;;;;5017064;28;20577;-78
2023/04/23 06:30:11;;;;;;;0.63;0.60;;;13.30;99.90;;;;;;5018069;28;20260;-78
2023/04/23 06:32:37;;;;;;;2.15;0.73;;;13.30;99.90;;;;;;5018811;28;20100;-80
2023/04/23 06:35:05;;;;;;;1.25;0.68;;;13.30;99.90;;;;;;5023006;28;20157;-79
2023/04/23 06:37:33;;;;;;;0.73;0.60;;;13.40;99.90;;;;;;5015266;28;20469;-78
2023/04/23 06:40:00;;;;;;;1.00;0.65;;;13.40;99.90;;;;;;5020992;28;20105;-77
2023/04/23 06:42:27;;;;;;;0.60;0.50;;;13.40;99.90;;;;;;5017561;28;20066;-78
2023/04/23 06:44:54;;;;;;;1.05;0.57;;;13.50;99.90;;;;;;5018360;28;20069;-78
2023/04/23 06:47:20;;;;;;;2.28;0.60;;;13.60;99.90;;;;;;5020266;28;20140;-78
2023/04/23 06:49:47;;;;;;;1.88;0.70;;;13.60;99.90;;;;;;5016947;28;20137;-79
2023/04/23 06:52:14;;;;;;;0.55;0.40;;;13.60;99.90;;;;;;5019286;28;20073;-78
2023/04/23 06:54:40;;;;;;;1.67;0.70;;;13.60;99.90;;;;;;5016484;28;20141;-79
2023/04/23 06:57:08;;;;;;;1.58;0.70;;;13.70;99.90;;;;;;5021151;28;20080;-79
2023/04/23 06:59:35;;;;;;;0.82;0.77;;;13.70;99.90;;;;;;5016585;28;20225;-79
2023/04/23 07:02:02;;;;;;;1.27;1.00;;;13.70;99.90;;;;;;5017942;28;20080;-79
2023/04/23 07:04:29;;;;;;;1.02;0.68;;;13.70;99.90;;;;;;5017166;28;20046;-78
2023/04/23 07:06:56;;;;;;;2.08;0.77;;;13.70;99.90;;;;;;5019737;28;20456;-79
2023/04/23 07:09:22;;;;;;;0.70;0.70;;;13.70;99.90;;;;;;5018726;28;20042;-78
2023/04/23 07:11:49;;;;;;;0.60;0.60;;;13.70;99.90;;;;;;5018164;28;20148;-78
2023/04/23 07:14:16;;;;;;;1.17;0.80;;;13.70;99.90;;;;;;5019111;28;20049;-79
2023/04/23 07:16:43;;;;;;;0.85;0.80;;;13.70;99.90;;;;;;5018198;28;20082;-78
2023/04/23 07:19:10;;;;;;;1.60;0.63;;;13.70;99.90;;;;;;5015382;28;20096;-78
2023/04/23 07:21:36;;;;;;;2.63;0.90;;;13.70;99.90;;;;;;5017346;28;20145;-79
2023/04/23 07:24:06;;;;;;;3.50;0.77;;;13.70;99.90;;;;;;5015806;28;20514;-77
2023/04/23 07:26:34;;;;;;;1.70;0.57;;;13.80;99.90;;;;;;5019487;28;20049;-79
2023/04/23 07:29:02;;;;;;;2.03;0.70;;;13.80;99.90;;;;;;5016050;28;20069;-80
2023/04/23 07:31:29;;;;;;;0.75;0.70;;;13.90;99.90;;;;;;5019226;28;20056;-79
2023/04/23 07:33:56;;;;;;;0.68;0.68;;;13.90;99.90;;;;;;5016431;28;20050;-80
2023/04/23 07:36:22;;;;;;;1.40;0.90;;;14.00;99.90;;;;;;5030348;28;20041;-79
2023/04/23 07:38:49;;;;;;;0.90;0.60;;;14.00;99.90;;;;;;5019300;28;20056;-79
2023/04/23 07:41:17;;;;;;;1.35;0.75;;;14.10;99.90;;;;;;5016798;28;20042;-78
2023/04/23 07:43:44;;;;;;;1.92;0.75;;;14.20;99.90;;;;;;5015224;28;20050;-79
2023/04/23 07:46:11;;;;;;;0.50;0.50;;;14.20;99.90;;;;;;5017363;28;20497;-79
2023/04/23 07:48:38;;;;;;;1.23;0.80;;;14.30;99.90;;;;;;5016291;28;20056;-78
2023/04/23 07:51:05;;;;;;;2.13;1.23;;;14.40;99.90;;;;;;5017201;28;20514;-79
2023/04/23 07:53:32;;;;;;;2.38;1.10;;;14.50;99.90;;;;;;5015512;28;20077;-79
2023/04/23 07:55:59;;;;;;;2.75;0.63;;;14.50;99.90;;;;;;5012411;28;20056;-79
2023/04/23 07:58:26;;;;;;;1.25;0.60;;;14.60;99.90;;;;;;5016893;28;20046;-79
2023/04/23 08:00:53;;;;;;;1.23;0.70;;;14.70;99.90;;;;;;5019084;28;20085;-79
2023/04/23 08:03:19;;;;;;;0.80;0.60;;;14.70;99.90;;;;;;5020586;28;20129;-79
2023/04/23 08:05:47;;;;;;;2.85;0.80;;;14.80;99.90;;;;;;5031929;28;20054;-78
2023/04/23 08:08:14;;;;;;;0.60;0.60;;;14.90;99.90;;;;;;5020435;28;20118;-78
2023/04/23 08:10:41;;;;;;;1.63;0.50;;;14.90;99.90;;;;;;5022816;28;20491;-79
2023/04/23 08:13:09;;;;;;;0.73;0.57;;;15.00;99.90;;;;;;5020055;28;20058;-77
2023/04/23 08:15:36;;;;;;;2.22;0.50;;;15.10;99.90;;;;;;5033642;28;20073;-79
2023/04/23 08:18:03;;;;;;;3.35;1.17;;;15.20;99.90;;;;;;5034486;28;20052;-78
2023/04/23 08:20:31;;;;;;;2.28;0.63;;;15.30;99.90;;;;;;5037115;28;20069;-79
2023/04/23 08:22:58;;;;;;;0.85;0.52;;;15.40;99.90;;;;;;5022761;28;20069;-79
2023/04/23 08:25:24;;;;;;;2.28;0.57;;;15.50;99.90;;;;;;5022910;28;20109;-79
2023/04/23 08:27:51;;;;;;;0.50;0.40;;;15.60;99.90;;;;;;5022154;28;20073;-80
2023/04/23 08:30:18;;;;;;;1.83;0.68;;;15.70;99.90;;;;;;5019498;28;20046;-79
2023/04/23 08:32:52;;;;;;;0.52;0.52;;;15.80;99.90;;;;;;5022757;28;20058;-79
2023/04/23 08:35:19;;;;;;;0.52;0.50;;;15.90;99.90;;;;;;5023019;28;20121;-79
2023/04/23 08:37:46;;;;;;;1.83;0.60;;;16.00;99.90;;;;;;5023195;28;20078;-79
2023/04/23 08:40:13;;;;;;;1.45;0.57;;;16.10;99.90;;;;;;5034626;28;20481;-78
2023/04/23 08:42:49;;;;;;;2.30;0.70;;;16.20;99.90;;;;;;5022613;28;20129;-79
2023/04/23 08:45:17;;;;;;;0.40;0.30;;;16.30;99.90;;;;;;5007905;28;20422;-79
2023/04/23 08:47:44;;;;;;;0.30;0.30;;;16.40;99.90;;;;;;5021597;28;20092;-78
2023/04/23 08:50:16;;;;;;;0.55;0.45;;;16.40;99.90;;;;;;5022298;28;20046;-79
2023/04/23 08:52:51;;;;;;;0.77;0.50;;;16.40;99.90;;;;;;5023454;28;20050;-79
2023/04/23 08:55:18;;;;;;;1.00;0.30;;;16.40;99.90;;;;;;5022459;28;20045;-78
2023/04/23 08:57:45;;;;;;;1.25;0.40;;;16.40;99.90;;;;;;5030553;28;20093;-79
2023/04/23 09:00:14;;;;;;;1.35;0.50;;;16.40;99.90;;;;;;5028930;28;20069;-80
2023/04/23 09:02:43;;;;;;;0.82;0.40;;;16.50;99.90;;;;;;5021177;28;20129;-78
2023/04/23 09:05:11;;;;;;;0.55;0.32;;;16.50;99.90;;;;;;5037262;28;20045;-79
2023/04/23 09:07:38;;;;;;;0.40;0.40;;;16.50;99.90;;;;;;5017658;28;20488;-77
2023/04/23 09:10:06;;;;;;;0.20;0.20;;;16.60;99.90;;;;;;5023702;28;20459;-79
2023/04/23 09:12:38;;;;;;;2.25;0.55;;;16.70;99.90;;;;;;5026720;28;20077;-77
2023/04/23 09:15:09;;;;;;;0.15;0.15;;;16.80;99.90;;;;;;5024575;28;20498;-78
2023/04/23 09:17:42;;;;;;;0.75;0.30;;;16.90;99.90;;;;;;5026258;28;20096;-79
2023/04/23 09:20:10;;;;;;;0.30;0.30;;;17.00;99.90;;;;;;5021119;28;20048;-79
2023/04/23 09:22:42;;;;;;;0.30;0.30;;;17.10;99.90;;;;;;5016625;28;20127;-78
2023/04/23 09:25:15;;;;;;;1.30;0.47;;;17.20;99.90;;;;;;5018185;28;20105;-78
2023/04/23 09:27:42;;;;;;;0.85;0.43;;;17.30;99.90;;;;;;5017781;28;20049;-80
2023/04/23 09:30:10;;;;;;;0.55;0.30;;;17.30;99.90;;;;;;5017061;28;20137;-79
2023/04/23 09:32:39;;;;;;;0.43;0.40;;;17.40;99.90;;;;;;5014696;28;20560;-78
2023/04/23 09:35:14;;;;;;;0.30;0.30;;;17.40;99.90;;;;;;5018577;28;20457;-79
2023/04/23 09:37:43;;;;;;;1.17;0.60;;;17.50;99.90;;;;;;5016310;28;20164;-78
2023/04/23 09:40:13;;;;;;;0.50;0.40;;;17.50;99.90;;;;;;5017770;28;20045;-78
2023/04/23 09:42:45;;;;;;;2.90;0.40;;;17.60;99.90;;;;;;5030435;28;20110;-79
2023/04/23 09:45:12;;;;;;;0.55;0.30;;;17.60;99.90;;;;;;5036638;28;20045;-79
2023/04/23 09:47:47;;;;;;;1.33;0.50;;;17.70;99.90;;;;;;5017863;28;20053;-78
2023/04/23 09:50:14;;;;;;;0.68;0.50;;;17.80;99.90;;;;;;5013740;28;20054;-78
2023/04/23 09:52:41;;;;;;;1.75;0.80;;;17.80;99.90;;;;;;5005742;28;20498;-79
2023/04/23 09:55:08;;;;;;;3.90;0.70;;;17.80;99.90;;;;;;5015498;28;20077;-79
2023/04/23 09:57:40;;;;;;;1.95;0.65;;;17.90;99.90;;;;;;5018355;28;20137;-79
2023/04/23 10:00:18;;;;;;;2.00;0.43;;;17.90;99.90;;;;;;5017099;28;20156;-78
2023/04/23 10:02:50;;;;;;;0.95;0.43;;;17.90;99.90;;;;;;5015827;28;20153;-79
2023/04/23 10:05:21;;;;;;;2.65;0.70;;;17.90;99.90;;;;;;5016332;28;20053;-79
2023/04/23 10:07:58;;;;;;;1.23;0.65;;;17.90;99.90;;;;;;5018127;28;20042;-79
2023/04/23 10:10:25;;;;;;;1.00;0.50;;;17.90;99.90;;;;;;5015819;28;20132;-79
2023/04/23 10:12:53;;;;;;;1.45;0.50;;;17.90;99.90;;;;;;5017207;28;20050;-78
2023/04/23 10:15:24;;;;;;;0.73;0.50;;;17.90;99.90;;;;;;5017791;28;20045;-79
2023/04/23 10:17:51;;;;;;;4.20;0.60;;;17.90;99.90;;;;;;5032561;28;20046;-79
2023/04/23 10:20:20;;;;;;;1.42;0.70;;;17.90;99.90;;;;;;5017623;28;20049;-78
2023/04/23 10:22:48;;;;;;;2.38;0.80;;;17.80;99.90;;;;;;5032547;28;20128;-78
2023/04/23 10:25:15;;;;;;;5.78;0.60;;;17.80;99.90;;;;;;5017704;28;20041;-78
2023/04/23 10:27:45;;;;;;;3.10;0.70;;;17.80;99.90;;;;;;5018273;28;20046;-78
2023/04/23 10:30:19;;;;;;;0.90;0.85;;;17.80;99.90;;;;;;5014185;28;20045;-77
2023/04/23 10:32:48;;;;;;;1.90;0.80;;;17.90;99.90;;;;;;5014727;28;20100;-80
2023/04/23 10:35:15;;;;;;;2.15;0.80;;;17.90;99.90;;;;;;5015988;28;20413;-78
2023/04/23 10:37:44;;;;;;;2.33;0.95;;;17.90;99.90;;;;;;5015585;28;20133;-78
2023/04/23 10:40:18;;;;;;;2.58;0.70;;;17.90;99.90;;;;;;5029285;28;20490;-79
2023/04/23 10:42:46;;;;;;;6.07;0.93;;;17.90;99.90;;;;;;5012709;28;20467;-79
2023/04/23 10:45:17;;;;;;;2.50;1.23;;;18.00;99.90;;;;;;5016482;28;20046;-79
2023/04/23 10:47:47;;;;;;;0.68;0.52;;;18.00;99.90;;;;;;5013974;28;20049;-78
2023/04/23 10:50:28;;;;;;;1.05;0.77;;;18.00;99.90;;;;;;5019717;28;20041;-78
2023/04/23 10:52:56;;;;;;;3.83;0.90;;;18.10;99.90;;;;;;5016249;28;20052;-79
2023/04/23 10:55:26;;;;;;;4.35;0.98;;;18.10;99.90;;;;;;5020509;28;20498;-78
2023/04/23 10:58:03;;;;;;;2.55;1.10;;;18.10;99.90;;;;;;5019347;28;20085;-80
2023/04/23 11:00:44;;;;;;;3.85;0.90;;;18.20;99.90;;;;;;5016160;28;20080;-78
2023/04/23 11:03:41;;;;;;;2.25;0.95;;;18.20;99.90;;;;;;5019119;28;20057;-78
2023/04/23 11:06:19;;;;;;;2.53;0.82;;;18.20;99.90;;;;;;5027614;28;20077;-77
2023/04/23 11:08:52;;;;;;;2.65;1.00;;;18.20;99.90;;;;;;5013551;28;20064;-78
2023/04/23 11:11:38;;;;;;;2.58;1.10;;;18.20;99.90;;;;;;5017056;28;20049;-79
2023/04/23 11:14:15;;;;;;;1.90;0.80;;;18.20;99.90;;;;;;5011401;28;20058;-78
2023/04/23 11:16:42;;;;;;;3.33;0.90;;;18.20;99.90;;;;;;5037805;28;20034;-78
2023/04/23 11:19:11;;;;;;;2.75;1.08;;;18.20;99.90;;;;;;5046467;28;20037;-80
2023/04/23 11:22:05;;;;;;;6.10;1.30;;;18.20;99.90;;;;;;5039686;28;20030;-81
2023/04/23 11:24:40;;;;;;;3.58;0.93;;;18.30;99.90;;;;;;5035872;28;20060;-80
2023/04/23 11:27:17;;;;;;;3.13;1.45;;;18.30;99.90;;;;;;5027783;28;20080;-78
2023/04/23 11:29:45;;;;;;;1.80;1.10;;;18.30;99.90;;;;;;5033922;28;20046;-77
2023/04/23 11:32:16;;;;;;;2.67;0.85;;;18.40;99.90;;;;;;5011227;28;20049;-79
2023/04/23 11:34:44;;;;;;;3.67;1.45;;;18.50;99.90;;;;;;5015957;28;20060;-78
2023/04/23 11:37:13;;;;;;;1.98;1.00;;;18.50;99.90;;;;;;5016853;28;20054;-78
2023/04/23 11:39:42;;;;;;;2.40;1.27;;;18.60;99.90;;;;;;5016367;28;20048;-79
2023/04/23 11:42:10;;;;;;;4.80;1.13;;;18.60;99.90;;;;;;5018265;28;20042;-78
2023/04/23 11:44:39;;;;;;;1.45;1.05;;;18.70;99.90;;;;;;5018136;28;20121;-80
2023/04/23 11:47:11;;;;;;;2.88;1.10;;;18.70;99.90;;;;;;5023453;28;20417;-80
2023/04/23 11:49:39;;;;;;;2.00;1.40;;;18.70;99.90;;;;;;5022312;28;20081;-79
2023/04/23 11:52:06;;;;;;;5.40;1.40;;;18.80;99.90;;;;;;5021502;28;20688;-79
2023/04/23 11:54:33;;;;;;;2.63;1.33;;;18.90;99.90;;;;;;5022623;28;20148;-78
2023/04/23 11:57:01;;;;;;;3.33;0.88;;;19.00;99.90;;;;;;5022374;28;20054;-79
2023/04/23 11:59:28;;;;;;;2.75;1.23;;;19.10;99.90;;;;;;5022320;28;20125;-78
2023/04/23 12:01:59;;;;;;;2.75;1.20;;;19.20;99.90;;;;;;5022189;28;20046;-79
2023/04/23 12:04:28;;;;;;;1.75;1.08;;;19.30;99.90;;;;;;5022479;28;20196;-78
2023/04/23 12:06:56;;;;;;;3.72;1.25;;;19.40;99.90;;;;;;5023740;28;20129;-80
2023/04/23 12:09:25;;;;;;;3.90;1.00;;;19.60;99.90;;;;;;5020003;28;20045;-79
2023/04/23 12:11:53;;;;;;;3.95;1.35;;;19.70;99.90;;;;;;5021402;28;20046;-80
2023/04/23 12:14:27;;;;;;;5.20;1.55;;;19.80;99.90;;;;;;5021213;28;20080;-79
2023/04/23 12:16:54;;;;;;;1.98;1.20;;;19.90;99.90;;;;;;5020770;28;20047;-80
2023/04/23 12:19:27;;;;;;;2.20;1.48;;;19.90;99.90;;;;;;5034519;28;20493;-78
2023/04/23 12:21:59;;;;;;;3.13;1.17;;;20.00;99.90;;;;;;5020491;28;20096;-79
2023/04/23 12:24:28;;;;;;;2.78;1.33;;;20.00;99.90;;;;;;5019841;28;20045;-78
2023/04/23 12:26:59;;;;;;;4.75;1.25;;;20.10;99.90;;;;;;5020171;28;20077;-78
2023/04/23 12:29:29;;;;;;;3.42;1.30;;;20.10;99.90;;;;;;5021444;28;20108;-80
2023/04/23 12:31:59;;;;;;;3.45;1.23;;;20.20;99.90;;;;;;5020267;28;20049;-79
2023/04/23 12:34:26;;;;;;;3.40;1.10;;;20.20;99.90;;;;;;5021837;28;20103;-80
2023/04/23 12:36:55;;;;;;;4.15;1.10;;;20.20;99.90;;;;;;5022008;28;20140;-79
2023/04/23 12:39:32;;;;;;;4.07;0.85;;;20.20;99.90;;;;;;5022765;28;20504;-79
2023/04/23 12:42:03;;;;;;;1.80;0.95;;;20.20;99.90;;;;;;5022205;28;20064;-78
2023/04/23 12:44:35;;;;;;;2.08;1.00;;;20.20;99.90;;;;;;5022599;28;20049;-78
2023/04/23 12:47:06;;;;;;;4.38;1.00;;;20.20;99.90;;;;;;5021263;28;20053;-77
2023/04/23 12:49:34;;;;;;;4.10;1.10;;;20.20;99.90;;;;;;5017628;28;20100;-79
2023/04/23 12:52:03;;;;;;;1.73;1.08;;;20.20;99.90;;;;;;5022642;28;20104;-80
2023/04/23 12:54:32;;;;;;;3.97;0.82;;;20.30;99.90;;;;;;5018367;28;20053;-79